Ocotillo, California
Current Conditions -  °F | °C
As of 8:56 AM on Tuesday 27 Jan 2015 (Local Time) from KNJK Reporting Station
Broken Clouds Broken Clouds  
Wind Chill: 15°   Ceiling: 3500
Heat Index: 15°   Visibility: 10mi
Dew Point: 13°   Wind: 0mph
Humidity: 87%   Direction: NA
Pressure: 30.24"   Gusts: NA
Location:  32.74°N, 115.99°W
Report Text: KNJK 271656Z 00000KT 10SM FEW011 FEW025 BKN035 15/13 A3024 RMK AO2 SLP257 T01500128 $
Loading
Personal Weather Stations






























Interactive Weather Map New forecast layout! Learn more

10-Day Weather Forecast

Advertisements
Track Severe Weather on mobile